sensor_id;sensor_type;location;lat;lon;timestamp;P1;durP1;ratioP1;P2;durP2;ratioP2
35576;SDS011;21680;52.400;16.920;2024-03-17T00:00:05;11.60;;;3.10;;
35576;SDS011;21680;52.400;16.920;2024-03-17T00:02:35;13.80;;;3.30;;
35576;SDS011;21680;52.400;16.920;2024-03-17T00:05:00;6.90;;;3.30;;
35576;SDS011;21680;52.400;16.920;2024-03-17T00:07:25;10.30;;;2.50;;
35576;SDS011;21680;52.400;16.920;2024-03-17T00:09:50;9.70;;;2.30;;
35576;SDS011;21680;52.400;16.920;2024-03-17T00:12:15;9.40;;;3.10;;
35576;SDS011;21680;52.400;16.920;2024-03-17T00:14:41;12.20;;;3.60;;
35576;SDS011;21680;52.400;16.920;2024-03-17T00:17:07;13.10;;;3.30;;
35576;SDS011;21680;52.400;16.920;2024-03-17T00:19:33;11.10;;;3.10;;
35576;SDS011;21680;52.400;16.920;2024-03-17T00:21:58;14.50;;;2.40;;
35576;SDS011;21680;52.400;16.920;2024-03-17T00:24:23;15.80;;;3.80;;
35576;SDS011;21680;52.400;16.920;2024-03-17T00:26:49;12.50;;;2.90;;
35576;SDS011;21680;52.400;16.920;2024-03-17T00:29:14;20.20;;;3.40;;
35576;SDS011;21680;52.400;16.920;2024-03-17T00:31:40;11.80;;;2.00;;
35576;SDS011;21680;52.400;16.920;2024-03-17T00:34:06;12.50;;;2.40;;
35576;SDS011;21680;52.400;16.920;2024-03-17T00:36:32;9.60;;;2.70;;
35576;SDS011;21680;52.400;16.920;2024-03-17T00:38:57;11.40;;;3.40;;
35576;SDS011;21680;52.400;16.920;2024-03-17T00:41:23;10.10;;;2.50;;
35576;SDS011;21680;52.400;16.920;2024-03-17T00:43:48;9.90;;;2.50;;
35576;SDS011;21680;52.400;16.920;2024-03-17T00:46:15;10.70;;;2.60;;
35576;SDS011;21680;52.400;16.920;2024-03-17T00:48:40;9.30;;;2.80;;
35576;SDS011;21680;52.400;16.920;2024-03-17T00:51:05;17.70;;;3.00;;
35576;SDS011;21680;52.400;16.920;2024-03-17T00:53:30;13.90;;;2.60;;
35576;SDS011;21680;52.400;16.920;2024-03-17T00:55:55;7.30;;;2.40;;
35576;SDS011;21680;52.400;16.920;2024-03-17T00:58:25;11.60;;;2.70;;
35576;SDS011;21680;52.400;16.920;2024-03-17T01:00:50;14.10;;;2.80;;
35576;SDS011;21680;52.400;16.920;2024-03-17T01:03:16;15.50;;;2.60;;
35576;SDS011;21680;52.400;16.920;2024-03-17T01:05:42;7.60;;;2.50;;
35576;SDS011;21680;52.400;16.920;2024-03-17T01:08:09;12.70;;;2.30;;
35576;SDS011;21680;52.400;16.920;2024-03-17T01:10:39;17.00;;;3.00;;
35576;SDS011;21680;52.400;16.920;2024-03-17T01:13:06;12.80;;;2.50;;
35576;SDS011;21680;52.400;16.920;2024-03-17T01:15:32;9.60;;;2.70;;
35576;SDS011;21680;52.400;16.920;2024-03-17T01:17:57;9.60;;;2.40;;
35576;SDS011;21680;52.400;16.920;2024-03-17T01:20:23;11.20;;;2.30;;
35576;SDS011;21680;52.400;16.920;2024-03-17T01:22:48;9.20;;;2.30;;
35576;SDS011;21680;52.400;16.920;2024-03-17T01:25:14;15.60;;;3.40;;
35576;SDS011;21680;52.400;16.920;2024-03-17T01:27:39;10.20;;;2.30;;
35576;SDS011;21680;52.400;16.920;2024-03-17T01:30:04;12.10;;;2.20;;
35576;SDS011;21680;52.400;16.920;2024-03-17T01:32:30;11.60;;;2.90;;
35576;SDS011;21680;52.400;16.920;2024-03-17T01:34:55;11.40;;;2.20;;
35576;SDS011;21680;52.400;16.920;2024-03-17T01:37:21;12.30;;;2.70;;
35576;SDS011;21680;52.400;16.920;2024-03-17T01:39:46;9.50;;;1.90;;
35576;SDS011;21680;52.400;16.920;2024-03-17T01:42:11;13.60;;;2.50;;
35576;SDS011;21680;52.400;16.920;2024-03-17T01:44:36;10.80;;;2.40;;
35576;SDS011;21680;52.400;16.920;2024-03-17T01:47:01;11.20;;;2.70;;
35576;SDS011;21680;52.400;16.920;2024-03-17T01:49:28;6.20;;;2.00;;
35576;SDS011;21680;52.400;16.920;2024-03-17T01:51:55;11.30;;;2.50;;
35576;SDS011;21680;52.400;16.920;2024-03-17T01:54:22;14.60;;;3.00;;
35576;SDS011;21680;52.400;16.920;2024-03-17T01:56:47;13.50;;;2.00;;
35576;SDS011;21680;52.400;16.920;2024-03-17T01:59:13;10.20;;;2.60;;
35576;SDS011;21680;52.400;16.920;2024-03-17T02:01:39;12.50;;;2.30;;
35576;SDS011;21680;52.400;16.920;2024-03-17T02:04:05;11.70;;;3.40;;
35576;SDS011;21680;52.400;16.920;2024-03-17T02:06:31;14.20;;;2.50;;
35576;SDS011;21680;52.400;16.920;2024-03-17T02:08:57;11.90;;;2.30;;
35576;SDS011;21680;52.400;16.920;2024-03-17T02:11:26;24.60;;;5.30;;
35576;SDS011;21680;52.400;16.920;2024-03-17T02:13:53;6.20;;;1.80;;
35576;SDS011;21680;52.400;16.920;2024-03-17T02:16:21;13.60;;;2.50;;
35576;SDS011;21680;52.400;16.920;2024-03-17T02:18:47;10.00;;;3.00;;
35576;SDS011;21680;52.400;16.920;2024-03-17T02:21:13;15.30;;;2.20;;
35576;SDS011;21680;52.400;16.920;2024-03-17T02:23:38;17.00;;;2.60;;
35576;SDS011;21680;52.400;16.920;2024-03-17T02:26:04;11.70;;;2.40;;
35576;SDS011;21680;52.400;16.920;2024-03-17T02:28:37;11.00;;;2.50;;
35576;SDS011;21680;52.400;16.920;2024-03-17T02:31:04;16.10;;;1.90;;
35576;SDS011;21680;52.400;16.920;2024-03-17T02:33:30;11.70;;;1.70;;
35576;SDS011;21680;52.400;16.920;2024-03-17T02:35:55;12.80;;;2.20;;
35576;SDS011;21680;52.400;16.920;2024-03-17T02:38:20;10.60;;;2.50;;
35576;SDS011;21680;52.400;16.920;2024-03-17T02:41:06;16.80;;;2.80;;
35576;SDS011;21680;52.400;16.920;2024-03-17T02:43:32;11.00;;;1.90;;
35576;SDS011;21680;52.400;16.920;2024-03-17T02:45:57;16.70;;;2.00;;
35576;SDS011;21680;52.400;16.920;2024-03-17T02:48:23;13.20;;;2.00;;
35576;SDS011;21680;52.400;16.920;2024-03-17T02:50:48;10.30;;;1.60;;
35576;SDS011;21680;52.400;16.920;2024-03-17T02:53:14;10.00;;;1.90;;
35576;SDS011;21680;52.400;16.920;2024-03-17T02:55:39;5.70;;;1.60;;
35576;SDS011;21680;52.400;16.920;2024-03-17T02:58:04;8.70;;;2.00;;
35576;SDS011;21680;52.400;16.920;2024-03-17T03:00:31;14.50;;;2.10;;
35576;SDS011;21680;52.400;16.920;2024-03-17T03:02:56;5.90;;;1.70;;
35576;SDS011;21680;52.400;16.920;2024-03-17T03:05:21;10.80;;;1.90;;
35576;SDS011;21680;52.400;16.920;2024-03-17T03:07:46;7.00;;;1.70;;
35576;SDS011;21680;52.400;16.920;2024-03-17T03:10:11;10.40;;;2.10;;
35576;SDS011;21680;52.400;16.920;2024-03-17T03:12:37;14.50;;;2.30;;
35576;SDS011;21680;52.400;16.920;2024-03-17T03:15:02;13.00;;;2.00;;
35576;SDS011;21680;52.400;16.920;2024-03-17T03:17:28;8.50;;;2.10;;
35576;SDS011;21680;52.400;16.920;2024-03-17T03:19:53;7.60;;;1.30;;
35576;SDS011;21680;52.400;16.920;2024-03-17T03:22:20;14.90;;;2.10;;
35576;SDS011;21680;52.400;16.920;2024-03-17T03:24:46;13.00;;;1.90;;
35576;SDS011;21680;52.400;16.920;2024-03-17T03:27:12;6.30;;;1.80;;
35576;SDS011;21680;52.400;16.920;2024-03-17T03:29:38;11.70;;;1.90;;
35576;SDS011;21680;52.400;16.920;2024-03-17T03:32:03;11.80;;;3.50;;
35576;SDS011;21680;52.400;16.920;2024-03-17T03:34:28;14.30;;;2.20;;
35576;SDS011;21680;52.400;16.920;2024-03-17T03:36:54;13.90;;;2.20;;
35576;SDS011;21680;52.400;16.920;2024-03-17T03:39:21;9.30;;;2.20;;
35576;SDS011;21680;52.400;16.920;2024-03-17T03:41:46;17.60;;;3.50;;
35576;SDS011;21680;52.400;16.920;2024-03-17T03:44:12;16.10;;;2.20;;
35576;SDS011;21680;52.400;16.920;2024-03-17T03:46:37;12.30;;;2.00;;
35576;SDS011;21680;52.400;16.920;2024-03-17T03:49:02;12.90;;;2.40;;
35576;SDS011;21680;52.400;16.920;2024-03-17T03:51:28;10.50;;;1.70;;
35576;SDS011;21680;52.400;16.920;2024-03-17T03:53:54;9.80;;;1.70;;
35576;SDS011;21680;52.400;16.920;2024-03-17T03:56:19;10.00;;;2.00;;
35576;SDS011;21680;52.400;16.920;2024-03-17T03:58:45;11.70;;;1.50;;
35576;SDS011;21680;52.400;16.920;2024-03-17T04:01:11;12.00;;;1.70;;
35576;SDS011;21680;52.400;16.920;2024-03-17T04:03:36;6.50;;;1.70;;
35576;SDS011;21680;52.400;16.920;2024-03-17T04:06:09;12.70;;;2.10;;
35576;SDS011;21680;52.400;16.920;2024-03-17T04:08:36;7.20;;;1.40;;
35576;SDS011;21680;52.400;16.920;2024-03-17T04:11:03;8.40;;;1.40;;
35576;SDS011;21680;52.400;16.920;2024-03-17T04:13:28;10.10;;;1.80;;
35576;SDS011;21680;52.400;16.920;2024-03-17T04:15:55;10.10;;;1.60;;
35576;SDS011;21680;52.400;16.920;2024-03-17T04:18:22;8.00;;;2.50;;
35576;SDS011;21680;52.400;16.920;2024-03-17T04:20:50;13.20;;;2.00;;
35576;SDS011;21680;52.400;16.920;2024-03-17T04:23:19;12.60;;;2.30;;
35576;SDS011;21680;52.400;16.920;2024-03-17T04:25:45;9.00;;;1.70;;
35576;SDS011;21680;52.400;16.920;2024-03-17T04:28:10;8.60;;;1.60;;
35576;SDS011;21680;52.400;16.920;2024-03-17T04:30:36;9.20;;;1.40;;
35576;SDS011;21680;52.400;16.920;2024-03-17T04:33:02;8.70;;;1.40;;
35576;SDS011;21680;52.400;16.920;2024-03-17T04:35:28;8.00;;;1.40;;
35576;SDS011;21680;52.400;16.920;2024-03-17T04:37:54;8.90;;;1.50;;
35576;SDS011;21680;52.400;16.920;2024-03-17T04:40:19;7.40;;;1.20;;
35576;SDS011;21680;52.400;16.920;2024-03-17T04:42:44;12.30;;;1.80;;
35576;SDS011;21680;52.400;16.920;2024-03-17T04:45:09;13.20;;;1.30;;
35576;SDS011;21680;52.400;16.920;2024-03-17T04:47:36;9.00;;;1.70;;
35576;SDS011;21680;52.400;16.920;2024-03-17T04:50:02;8.50;;;1.00;;
35576;SDS011;21680;52.400;16.920;2024-03-17T04:52:29;9.40;;;1.60;;
35576;SDS011;21680;52.400;16.920;2024-03-17T04:54:54;11.30;;;1.40;;
35576;SDS011;21680;52.400;16.920;2024-03-17T04:57:19;4.20;;;1.40;;
35576;SDS011;21680;52.400;16.920;2024-03-17T04:59:44;17.70;;;1.90;;
35576;SDS011;21680;52.400;16.920;2024-03-17T05:02:10;4.40;;;1.30;;
35576;SDS011;21680;52.400;16.920;2024-03-17T05:04:35;12.20;;;1.20;;
35576;SDS011;21680;52.400;16.920;2024-03-17T05:07:00;11.50;;;1.60;;
35576;SDS011;21680;52.400;16.920;2024-03-17T05:09:25;5.30;;;1.30;;
35576;SDS011;21680;52.400;16.920;2024-03-17T05:11:51;8.10;;;1.50;;
35576;SDS011;21680;52.400;16.920;2024-03-17T05:14:17;10.30;;;1.20;;
35576;SDS011;21680;52.400;16.920;2024-03-17T05:16:44;6.00;;;1.30;;
35576;SDS011;21680;52.400;16.920;2024-03-17T05:19:09;13.40;;;1.60;;
35576;SDS011;21680;52.400;16.920;2024-03-17T05:21:34;9.90;;;1.30;;
35576;SDS011;21680;52.400;16.920;2024-03-17T05:24:01;14.30;;;1.60;;
35576;SDS011;21680;52.400;16.920;2024-03-17T05:26:26;11.30;;;1.40;;
35576;SDS011;21680;52.400;16.920;2024-03-17T05:28:51;4.50;;;0.70;;
35576;SDS011;21680;52.400;16.920;2024-03-17T05:31:17;10.10;;;1.90;;
35576;SDS011;21680;52.400;16.920;2024-03-17T05:33:43;6.90;;;1.30;;
35576;SDS011;21680;52.400;16.920;2024-03-17T05:36:09;7.30;;;1.40;;
35576;SDS011;21680;52.400;16.920;2024-03-17T05:38:34;11.70;;;1.60;;
35576;SDS011;21680;52.400;16.920;2024-03-17T05:41:00;9.50;;;1.70;;
35576;SDS011;21680;52.400;16.920;2024-03-17T05:43:30;7.30;;;1.60;;
35576;SDS011;21680;52.400;16.920;2024-03-17T05:45:58;9.00;;;1.40;;
35576;SDS011;21680;52.400;16.920;2024-03-17T05:48:26;10.10;;;1.10;;
35576;SDS011;21680;52.400;16.920;2024-03-17T05:50:52;8.90;;;1.50;;
35576;SDS011;21680;52.400;16.920;2024-03-17T05:53:18;9.70;;;1.60;;
35576;SDS011;21680;52.400;16.920;2024-03-17T05:55:44;10.20;;;2.50;;
35576;SDS011;21680;52.400;16.920;2024-03-17T05:58:10;22.30;;;1.90;;
35576;SDS011;21680;52.400;16.920;2024-03-17T06:00:36;11.50;;;1.90;;
35576;SDS011;21680;52.400;16.920;2024-03-17T06:03:03;13.80;;;1.90;;
35576;SDS011;21680;52.400;16.920;2024-03-17T06:05:32;7.50;;;1.60;;
35576;SDS011;21680;52.400;16.920;2024-03-17T06:07:59;7.80;;;1.30;;
35576;SDS011;21680;52.400;16.920;2024-03-17T06:10:25;8.70;;;1.20;;
35576;SDS011;21680;52.400;16.920;2024-03-17T06:12:52;9.40;;;1.50;;
35576;SDS011;21680;52.400;16.920;2024-03-17T06:15:17;12.40;;;1.60;;
35576;SDS011;21680;52.400;16.920;2024-03-17T06:17:42;9.10;;;2.10;;
35576;SDS011;21680;52.400;16.920;2024-03-17T06:20:08;9.20;;;1.80;;
35576;SDS011;21680;52.400;16.920;2024-03-17T06:22:38;11.30;;;1.90;;
35576;SDS011;21680;52.400;16.920;2024-03-17T06:25:03;3.80;;;1.10;;
35576;SDS011;21680;52.400;16.920;2024-03-17T06:27:29;6.20;;;1.20;;
35576;SDS011;21680;52.400;16.920;2024-03-17T06:29:56;10.50;;;1.50;;
35576;SDS011;21680;52.400;16.920;2024-03-17T06:32:21;6.30;;;1.50;;
35576;SDS011;21680;52.400;16.920;2024-03-17T06:34:46;15.20;;;2.00;;
35576;SDS011;21680;52.400;16.920;2024-03-17T06:37:12;15.80;;;2.40;;
35576;SDS011;21680;52.400;16.920;2024-03-17T06:39:37;2.20;;;0.50;;
35576;SDS011;21680;52.400;16.920;2024-03-17T06:42:02;13.40;;;1.90;;
35576;SDS011;21680;52.400;16.920;2024-03-17T06:44:28;7.70;;;1.60;;
35576;SDS011;21680;52.400;16.920;2024-03-17T06:46:55;9.10;;;1.50;;
35576;SDS011;21680;52.400;16.920;2024-03-17T06:49:20;10.70;;;1.30;;
35576;SDS011;21680;52.400;16.920;2024-03-17T06:51:46;7.70;;;1.70;;
35576;SDS011;21680;52.400;16.920;2024-03-17T06:54:11;12.50;;;1.40;;
35576;SDS011;21680;52.400;16.920;2024-03-17T06:56:36;13.20;;;2.50;;
35576;SDS011;21680;52.400;16.920;2024-03-17T06:59:02;11.00;;;1.90;;
35576;SDS011;21680;52.400;16.920;2024-03-17T07:01:28;14.60;;;2.00;;
35576;SDS011;21680;52.400;16.920;2024-03-17T07:03:54;3.90;;;1.00;;
35576;SDS011;21680;52.400;16.920;2024-03-17T07:06:20;11.70;;;1.70;;
35576;SDS011;21680;52.400;16.920;2024-03-17T07:08:45;8.80;;;1.60;;
35576;SDS011;21680;52.400;16.920;2024-03-17T07:11:11;8.10;;;1.80;;
35576;SDS011;21680;52.400;16.920;2024-03-17T07:13:36;13.60;;;1.80;;
35576;SDS011;21680;52.400;16.920;2024-03-17T07:16:03;8.90;;;1.70;;
35576;SDS011;21680;52.400;16.920;2024-03-17T07:18:32;12.10;;;2.00;;
35576;SDS011;21680;52.400;16.920;2024-03-17T07:20:59;10.10;;;1.70;;
35576;SDS011;21680;52.400;16.920;2024-03-17T07:23:25;11.80;;;1.50;;
35576;SDS011;21680;52.400;16.920;2024-03-17T07:25:51;8.80;;;1.50;;
35576;SDS011;21680;52.400;16.920;2024-03-17T07:28:18;11.10;;;1.90;;
35576;SDS011;21680;52.400;16.920;2024-03-17T07:30:51;16.60;;;2.50;;
35576;SDS011;21680;52.400;16.920;2024-03-17T07:33:18;12.00;;;1.50;;
35576;SDS011;21680;52.400;16.920;2024-03-17T07:35:55;11.90;;;2.40;;
35576;SDS011;21680;52.400;16.920;2024-03-17T07:38:24;8.00;;;1.90;;
35576;SDS011;21680;52.400;16.920;2024-03-17T07:41:01;7.40;;;1.50;;
35576;SDS011;21680;52.400;16.920;2024-03-17T07:43:27;7.30;;;1.40;;
35576;SDS011;21680;52.400;16.920;2024-03-17T07:46:01;26.90;;;3.50;;
35576;SDS011;21680;52.400;16.920;2024-03-17T07:48:35;8.70;;;1.80;;
35576;SDS011;21680;52.400;16.920;2024-03-17T07:51:03;10.10;;;2.10;;
35576;SDS011;21680;52.400;16.920;2024-03-17T07:53:31;13.10;;;2.10;;
35576;SDS011;21680;52.400;16.920;2024-03-17T07:55:59;8.10;;;1.60;;
35576;SDS011;21680;52.400;16.920;2024-03-17T07:58:26;11.30;;;1.90;;
35576;SDS011;21680;52.400;16.920;2024-03-17T08:00:52;10.70;;;1.90;;
35576;SDS011;21680;52.400;16.920;2024-03-17T08:03:21;5.90;;;1.50;;
35576;SDS011;21680;52.400;16.920;2024-03-17T08:05:49;6.20;;;2.50;;
35576;SDS011;21680;52.400;16.920;2024-03-17T08:08:16;14.10;;;2.30;;
35576;SDS011;21680;52.400;16.920;2024-03-17T08:10:42;5.10;;;2.10;;
35576;SDS011;21680;52.400;16.920;2024-03-17T08:13:07;8.50;;;2.40;;
35576;SDS011;21680;52.400;16.920;2024-03-17T08:15:34;5.10;;;2.80;;
35576;SDS011;21680;52.400;16.920;2024-03-17T08:17:59;5.60;;;2.40;;
35576;SDS011;21680;52.400;16.920;2024-03-17T08:20:24;6.80;;;2.60;;
35576;SDS011;21680;52.400;16.920;2024-03-17T08:22:50;7.90;;;3.20;;
35576;SDS011;21680;52.400;16.920;2024-03-17T08:25:17;9.70;;;4.00;;
35576;SDS011;21680;52.400;16.920;2024-03-17T08:27:43;5.80;;;2.40;;
35576;SDS011;21680;52.400;16.920;2024-03-17T08:30:08;6.90;;;3.30;;
35576;SDS011;21680;52.400;16.920;2024-03-17T08:32:36;10.60;;;3.40;;
35576;SDS011;21680;52.400;16.920;2024-03-17T08:35:01;9.50;;;3.40;;
35576;SDS011;21680;52.400;16.920;2024-03-17T08:37:27;9.80;;;4.00;;
35576;SDS011;21680;52.400;16.920;2024-03-17T08:39:52;10.40;;;3.00;;
35576;SDS011;21680;52.400;16.920;2024-03-17T08:42:18;7.10;;;3.50;;
35576;SDS011;21680;52.400;16.920;2024-03-17T08:44:45;7.40;;;3.20;;
35576;SDS011;21680;52.400;16.920;2024-03-17T08:47:11;8.40;;;3.70;;
35576;SDS011;21680;52.400;16.920;2024-03-17T08:49:36;7.00;;;3.20;;
35576;SDS011;21680;52.400;16.920;2024-03-17T08:52:02;6.10;;;3.10;;
35576;SDS011;21680;52.400;16.920;2024-03-17T08:54:27;7.40;;;3.90;;
35576;SDS011;21680;52.400;16.920;2024-03-17T08:56:52;5.70;;;3.00;;
35576;SDS011;21680;52.400;16.920;2024-03-17T08:59:17;8.60;;;3.30;;
35576;SDS011;21680;52.400;16.920;2024-03-17T09:01:42;9.60;;;3.60;;
35576;SDS011;21680;52.400;16.920;2024-03-17T09:04:08;5.90;;;3.20;;
35576;SDS011;21680;52.400;16.920;2024-03-17T09:06:36;8.80;;;4.00;;
35576;SDS011;21680;52.400;16.920;2024-03-17T09:09:01;6.40;;;2.90;;
35576;SDS011;21680;52.400;16.920;2024-03-17T09:11:28;6.90;;;2.90;;
35576;SDS011;21680;52.400;16.920;2024-03-17T09:13:54;7.20;;;2.50;;
35576;SDS011;21680;52.400;16.920;2024-03-17T09:16:19;5.80;;;2.10;;
35576;SDS011;21680;52.400;16.920;2024-03-17T09:18:47;5.00;;;2.40;;
35576;SDS011;21680;52.400;16.920;2024-03-17T09:21:13;7.90;;;2.70;;
35576;SDS011;21680;52.400;16.920;2024-03-17T09:23:41;10.80;;;2.10;;
35576;SDS011;21680;52.400;16.920;2024-03-17T09:26:07;5.60;;;2.20;;
35576;SDS011;21680;52.400;16.920;2024-03-17T09:28:33;7.20;;;2.60;;
35576;SDS011;21680;52.400;16.920;2024-03-17T09:31:00;9.20;;;3.00;;
35576;SDS011;21680;52.400;16.920;2024-03-17T09:33:26;11.30;;;3.70;;
35576;SDS011;21680;52.400;16.920;2024-03-17T09:36:02;5.80;;;3.10;;
35576;SDS011;21680;52.400;16.920;2024-03-17T09:38:48;6.10;;;2.90;;
35576;SDS011;21680;52.400;16.920;2024-03-17T09:41:18;11.40;;;3.40;;
35576;SDS011;21680;52.400;16.920;2024-03-17T09:43:44;8.40;;;2.90;;
35576;SDS011;21680;52.400;16.920;2024-03-17T09:46:12;7.00;;;2.40;;
35576;SDS011;21680;52.400;16.920;2024-03-17T09:48:39;4.50;;;1.90;;
35576;SDS011;21680;52.400;16.920;2024-03-17T09:51:05;4.60;;;1.90;;
35576;SDS011;21680;52.400;16.920;2024-03-17T09:58:33;9.30;;;3.10;;
35576;SDS011;21680;52.400;16.920;2024-03-17T10:00:59;7.40;;;2.80;;
35576;SDS011;21680;52.400;16.920;2024-03-17T10:06:24;6.10;;;2.30;;
35576;SDS011;21680;52.400;16.920;2024-03-17T10:08:58;4.40;;;2.30;;
35576;SDS011;21680;52.400;16.920;2024-03-17T10:11:46;4.00;;;2.10;;
35576;SDS011;21680;52.400;16.920;2024-03-17T10:14:12;3.50;;;1.50;;
35576;SDS011;21680;52.400;16.920;2024-03-17T10:16:42;2.20;;;1.30;;
35576;SDS011;21680;52.400;16.920;2024-03-17T10:21:46;2.10;;;1.00;;
35576;SDS011;21680;52.400;16.920;2024-03-17T10:24:21;4.20;;;1.00;;
35576;SDS011;21680;52.400;16.920;2024-03-17T10:26:48;3.20;;;1.00;;
35576;SDS011;21680;52.400;16.920;2024-03-17T10:34:37;1.90;;;1.20;;
35576;SDS011;21680;52.400;16.920;2024-03-17T10:39:48;3.30;;;1.60;;
35576;SDS011;21680;52.400;16.920;2024-03-17T10:42:15;2.50;;;1.70;;
35576;SDS011;21680;52.400;16.920;2024-03-17T10:44:53;3.50;;;1.30;;
35576;SDS011;21680;52.400;16.920;2024-03-17T10:47:26;4.60;;;1.40;;
35576;SDS011;21680;52.400;16.920;2024-03-17T10:49:53;4.80;;;1.80;;
35576;SDS011;21680;52.400;16.920;2024-03-17T10:52:20;6.40;;;1.40;;
35576;SDS011;21680;52.400;16.920;2024-03-17T10:54:47;2.90;;;1.50;;
35576;SDS011;21680;52.400;16.920;2024-03-17T11:00:05;3.20;;;1.90;;
35576;SDS011;21680;52.400;16.920;2024-03-17T11:02:34;5.30;;;2.10;;
35576;SDS011;21680;52.400;16.920;2024-03-17T11:05:02;5.00;;;1.90;;
35576;SDS011;21680;52.400;16.920;2024-03-17T11:07:28;7.10;;;2.40;;
35576;SDS011;21680;52.400;16.920;2024-03-17T11:09:56;4.90;;;2.90;;
35576;SDS011;21680;52.400;16.920;2024-03-17T11:20:36;5.40;;;3.30;;
35576;SDS011;21680;52.400;16.920;2024-03-17T11:23:04;12.00;;;3.70;;
35576;SDS011;21680;52.400;16.920;2024-03-17T11:27:58;6.20;;;3.40;;
35576;SDS011;21680;52.400;16.920;2024-03-17T11:38:53;8.80;;;3.90;;
35576;SDS011;21680;52.400;16.920;2024-03-17T11:41:42;13.10;;;3.70;;
35576;SDS011;21680;52.400;16.920;2024-03-17T11:49:26;8.80;;;3.50;;
35576;SDS011;21680;52.400;16.920;2024-03-17T11:52:00;7.80;;;3.70;;
35576;SDS011;21680;52.400;16.920;2024-03-17T11:54:31;6.80;;;3.60;;
35576;SDS011;21680;52.400;16.920;2024-03-17T11:59:31;7.20;;;3.60;;
35576;SDS011;21680;52.400;16.920;2024-03-17T12:01:57;8.60;;;3.90;;
35576;SDS011;21680;52.400;16.920;2024-03-17T12:04:23;9.30;;;3.60;;
35576;SDS011;21680;52.400;16.920;2024-03-17T12:06:53;7.00;;;3.10;;
35576;SDS011;21680;52.400;16.920;2024-03-17T12:09:23;7.60;;;3.40;;
35576;SDS011;21680;52.400;16.920;2024-03-17T12:12:00;5.80;;;3.10;;
35576;SDS011;21680;52.400;16.920;2024-03-17T12:14:27;7.70;;;3.10;;
35576;SDS011;21680;52.400;16.920;2024-03-17T12:17:00;7.90;;;4.20;;
35576;SDS011;21680;52.400;16.920;2024-03-17T12:19:27;12.30;;;3.10;;
35576;SDS011;21680;52.400;16.920;2024-03-17T12:21:57;8.70;;;2.90;;
35576;SDS011;21680;52.400;16.920;2024-03-17T12:26:52;5.40;;;1.80;;
35576;SDS011;21680;52.400;16.920;2024-03-17T12:29:25;3.10;;;1.60;;
35576;SDS011;21680;52.400;16.920;2024-03-17T12:34:19;6.70;;;1.50;;
35576;SDS011;21680;52.400;16.920;2024-03-17T12:36:48;2.10;;;1.10;;
35576;SDS011;21680;52.400;16.920;2024-03-17T12:39:33;2.80;;;1.00;;
35576;SDS011;21680;52.400;16.920;2024-03-17T12:42:08;1.20;;;0.70;;
35576;SDS011;21680;52.400;16.920;2024-03-17T12:44:54;1.60;;;0.30;;
35576;SDS011;21680;52.400;16.920;2024-03-17T12:47:22;2.10;;;0.40;;
35576;SDS011;21680;52.400;16.920;2024-03-17T12:49:50;2.90;;;0.70;;
35576;SDS011;21680;52.400;16.920;2024-03-17T12:52:18;0.60;;;0.40;;
35576;SDS011;21680;52.400;16.920;2024-03-17T12:55:00;1.70;;;0.90;;
35576;SDS011;21680;52.400;16.920;2024-03-17T12:57:46;2.00;;;0.80;;
35576;SDS011;21680;52.400;16.920;2024-03-17T13:00:31;3.50;;;0.90;;
35576;SDS011;21680;52.400;16.920;2024-03-17T13:02:57;2.80;;;0.70;;
35576;SDS011;21680;52.400;16.920;2024-03-17T13:05:23;4.50;;;0.70;;
35576;SDS011;21680;52.400;16.920;2024-03-17T13:07:56;3.60;;;0.80;;
35576;SDS011;21680;52.400;16.920;2024-03-17T13:10:22;3.10;;;0.80;;
35576;SDS011;21680;52.400;16.920;2024-03-17T13:12:57;4.00;;;0.80;;
35576;SDS011;21680;52.400;16.920;2024-03-17T13:15:25;4.50;;;1.90;;
35576;SDS011;21680;52.400;16.920;2024-03-17T13:17:50;1.90;;;0.90;;
35576;SDS011;21680;52.400;16.920;2024-03-17T13:20:16;1.60;;;0.50;;
35576;SDS011;21680;52.400;16.920;2024-03-17T13:22:42;3.60;;;0.90;;
35576;SDS011;21680;52.400;16.920;2024-03-17T13:25:09;0.60;;;0.40;;
35576;SDS011;21680;52.400;16.920;2024-03-17T13:27:40;2.30;;;0.70;;
35576;SDS011;21680;52.400;16.920;2024-03-17T13:30:07;3.20;;;0.60;;
35576;SDS011;21680;52.400;16.920;2024-03-17T13:32:34;1.50;;;0.70;;
35576;SDS011;21680;52.400;16.920;2024-03-17T13:35:01;1.70;;;0.40;;
35576;SDS011;21680;52.400;16.920;2024-03-17T13:37:27;3.50;;;0.80;;
35576;SDS011;21680;52.400;16.920;2024-03-17T13:39:56;1.20;;;0.60;;
35576;SDS011;21680;52.400;16.920;2024-03-17T13:42:21;1.80;;;0.70;;
35576;SDS011;21680;52.400;16.920;2024-03-17T13:44:46;4.60;;;1.50;;
35576;SDS011;21680;52.400;16.920;2024-03-17T13:47:14;2.50;;;0.90;;
35576;SDS011;21680;52.400;16.920;2024-03-17T13:49:39;1.00;;;0.60;;
35576;SDS011;21680;52.400;16.920;2024-03-17T13:52:04;1.00;;;0.60;;
35576;SDS011;21680;52.400;16.920;2024-03-17T13:54:30;1.70;;;0.70;;
35576;SDS011;21680;52.400;16.920;2024-03-17T13:56:57;1.80;;;1.10;;
35576;SDS011;21680;52.400;16.920;2024-03-17T13:59:23;2.20;;;1.10;;
35576;SDS011;21680;52.400;16.920;2024-03-17T14:01:50;1.20;;;0.70;;
35576;SDS011;21680;52.400;16.920;2024-03-17T14:04:15;1.90;;;0.70;;
35576;SDS011;21680;52.400;16.920;2024-03-17T14:06:45;3.60;;;0.90;;
35576;SDS011;21680;52.400;16.920;2024-03-17T14:09:16;3.90;;;0.60;;
35576;SDS011;21680;52.400;16.920;2024-03-17T14:11:44;0.90;;;0.50;;
35576;SDS011;21680;52.400;16.920;2024-03-17T14:14:14;1.50;;;0.60;;
35576;SDS011;21680;52.400;16.920;2024-03-17T14:16:42;0.90;;;0.50;;
35576;SDS011;21680;52.400;16.920;2024-03-17T14:19:10;2.20;;;1.00;;
35576;SDS011;21680;52.400;16.920;2024-03-17T14:21:38;3.70;;;0.60;;
35576;SDS011;21680;52.400;16.920;2024-03-17T14:24:03;0.80;;;0.50;;
35576;SDS011;21680;52.400;16.920;2024-03-17T14:26:32;1.60;;;0.30;;
35576;SDS011;21680;52.400;16.920;2024-03-17T14:28:57;0.80;;;0.70;;
35576;SDS011;21680;52.400;16.920;2024-03-17T14:31:24;0.40;;;0.20;;
35576;SDS011;21680;52.400;16.920;2024-03-17T14:33:50;0.40;;;0.30;;
35576;SDS011;21680;52.400;16.920;2024-03-17T14:36:15;0.60;;;0.20;;
35576;SDS011;21680;52.400;16.920;2024-03-17T14:38:41;1.00;;;0.40;;
35576;SDS011;21680;52.400;16.920;2024-03-17T14:41:08;0.40;;;0.20;;
35576;SDS011;21680;52.400;16.920;2024-03-17T14:43:35;0.90;;;0.70;;
35576;SDS011;21680;52.400;16.920;2024-03-17T14:46:03;1.40;;;0.50;;
35576;SDS011;21680;52.400;16.920;2024-03-17T14:48:36;1.60;;;0.60;;
35576;SDS011;21680;52.400;16.920;2024-03-17T14:51:01;0.80;;;0.50;;
35576;SDS011;21680;52.400;16.920;2024-03-17T14:53:27;0.60;;;0.30;;
35576;SDS011;21680;52.400;16.920;2024-03-17T14:55:52;2.10;;;0.60;;
35576;SDS011;21680;52.400;16.920;2024-03-17T14:58:17;1.20;;;0.30;;
35576;SDS011;21680;52.400;16.920;2024-03-17T15:00:43;0.60;;;0.40;;
35576;SDS011;21680;52.400;16.920;2024-03-17T15:03:09;1.80;;;0.80;;
35576;SDS011;21680;52.400;16.920;2024-03-17T15:05:34;1.10;;;0.70;;
35576;SDS011;21680;52.400;16.920;2024-03-17T15:07:59;0.40;;;0.30;;
35576;SDS011;21680;52.400;16.920;2024-03-17T15:10:24;1.60;;;0.50;;
35576;SDS011;21680;52.400;16.920;2024-03-17T15:12:50;0.60;;;0.30;;
35576;SDS011;21680;52.400;16.920;2024-03-17T15:15:16;1.20;;;0.60;;
35576;SDS011;21680;52.400;16.920;2024-03-17T15:17:42;2.60;;;0.20;;
35576;SDS011;21680;52.400;16.920;2024-03-17T15:20:09;1.10;;;0.40;;